METAR AND TAF INFORMATION
METAR FOR BGBW
ADDS - METARS form results

(1721 UTC 18 January 2018)
Data provider http://aviationweather.gov/adds/metars/
 
METAR text: BGBW 181650Z 07005KT 9999 FEW200 M14/M24 Q1010
Conditions at: BGBW (NARSSARSSUAQ , GL) observed 1650 UTC 18 January 2018
Temperature: -14.0°C (7°F)
Dewpoint: -24.0°C (-11°F) [RH = 43%]
Pressure (altimeter): 29.82 inches Hg (1010.0 mb)
Winds: from the ENE (70 degrees) at 6 MPH (5 knots; 2.6 m/s)
Visibility: 6 or more miles (10+ km)
Ceiling: at least 12,000 feet AGL
Clouds: few clouds at 20000 feet AGL
Weather: no significant weather observed at this time

Forecast for: BGBW (NARSSARSSUAQ , GL)
Text: TAF BGBW 181427Z 1815/1822 07006KT 9999 FEW200
Forecast period: 1500 to 2200 UTC 18 January 2018
Forecast type: FROM: standard forecast or significant change
Winds: from the ENE (70 degrees) at 7 MPH (6 knots; 3.1 m/s)
Visibility: 6 or more miles (10+ km)
Clouds: few clouds at 20000 feet AGL
Weather: no significant weather forecast for this period

 AIRPORT MAP

 RUNWAY INFORMATION
Runway 07 Runway length 6004 ft Runway width 148 ft
Runway elevation 11 ft Runway displaced threshold 0 ft Runway heading 41
Runway 25 Runway length 6004 ft Runway width 148 ft
Runway elevation 112 ft Runway displaced threshold 0 ft Runway heading 221

 AIRPORT FREQUENCIES
Type AFIS Name AFIS Frequency 119.1 MHZ

 AIRPORT NEAR NAVIGATION AIDS
Type NDB Name Narsarsuaq Frequency 359 KHZ
Type DME Name Narsarsuaq Frequency 111850 KHZ



v2.6.1